Brewer, Maine
Current Conditions -  °F | °C
As of 10:53 AM on Monday 26 Jan 2015 (Local Time) from KBGR Reporting Station
Broken Clouds Broken Clouds  
Wind Chill:   Ceiling: 20000
Heat Index:   Visibility: 10mi
Dew Point: -6°   Wind: 3mph
Humidity: 55%   Direction: 350°N
Pressure: 30.23"   Gusts: NA
Location:  44.8°N, 68.76°W
Report Text: KBGR 261553Z 35003KT 10SM BKN200 M14/M21 A3023 RMK AO2 SLP241 T11391211
Loading
Personal Weather Stations






























Interactive Weather Map New forecast layout! Learn more

10-Day Weather Forecast

Advertisements
Track Severe Weather on mobile